Time,TemperatureF,DewpointF,PressureIn,WindDirection,WindDirectionDegrees,WindSpeedMPH,WindSpeedGustMPH,Humidity,HourlyPrecipIn,Conditions,Clouds,dailyrainin,SoftwareType,DateUTC
2013-03-15 00:00:00,28.7,19.8,30.11,SW,232,0.0,0.0,69,0.00,,,0.01,Wunderground v.1.15,2013-03-15 04:00:00,
2013-03-15 00:05:00,28.7,19.8,30.11,SW,232,0.0,0.0,69,0.00,,,0.00,Wunderground v.1.15,2013-03-15 04:05:00,
2013-03-15 00:10:00,28.5,19.6,30.11,SW,232,0.0,0.0,69,0.00,,,0.00,Wunderground v.1.15,2013-03-15 04:10:00,
2013-03-15 00:15:00,28.5,19.6,30.11,SW,232,0.0,0.0,69,0.00,,,0.00,Wunderground v.1.15,2013-03-15 04:15:00,
2013-03-15 00:20:00,28.4,19.2,30.11,SW,232,0.0,0.0,68,0.00,,,0.00,Wunderground v.1.15,2013-03-15 04:20:00,
2013-03-15 00:30:00,28.2,19.0,30.11,SW,232,0.0,0.0,68,0.00,,,0.00,Wunderground v.1.15,2013-03-15 04:30:00,
2013-03-15 00:40:00,28.2,19.3,30.11,SW,232,0.0,0.0,69,0.00,,,0.00,Wunderground v.1.15,2013-03-15 04:40:00,
2013-03-15 00:45:00,28.1,19.6,30.11,SW,232,0.0,0.0,70,0.00,,,0.00,Wunderground v.1.15,2013-03-15 04:45:00,
2013-03-15 00:55:00,27.9,19.4,30.11,SW,232,0.0,0.0,70,0.00,,,0.00,Wunderground v.1.15,2013-03-15 04:55:00,
2013-03-15 01:00:00,27.9,19.7,30.11,SW,232,0.0,0.0,71,0.00,,,0.00,Wunderground v.1.15,2013-03-15 05:00:00,
2013-03-15 01:05:00,27.9,19.4,30.11,SW,232,0.0,0.0,70,0.00,,,0.00,Wunderground v.1.15,2013-03-15 05:05:00,
2013-03-15 01:15:00,28.4,20.2,30.11,SW,230,0.0,0.0,71,0.00,,,0.00,Wunderground v.1.15,2013-03-15 05:15:00,
2013-03-15 01:25:00,28.8,20.2,30.10,SW,230,0.0,0.0,70,0.00,,,0.00,Wunderground v.1.15,2013-03-15 05:25:00,
2013-03-15 01:30:00,28.8,20.2,30.10,SE,142,0.0,0.0,70,0.00,,,0.00,Wunderground v.1.15,2013-03-15 05:30:00,
2013-03-15 01:40:00,28.7,20.5,30.09,SE,143,0.0,0.0,71,0.00,,,0.00,Wunderground v.1.15,2013-03-15 05:40:00,
2013-03-15 01:45:00,29.0,20.4,30.09,SE,143,0.0,0.0,70,0.00,,,0.00,Wunderground v.1.15,2013-03-15 05:45:00,
2013-03-15 01:55:00,29.0,20.8,30.09,ESE,111,0.0,0.0,71,0.00,,,0.00,Wunderground v.1.15,2013-03-15 05:55:00,
2013-03-15 02:00:00,29.1,20.2,30.09,SSE,165,0.0,0.0,69,0.00,,,0.00,Wunderground v.1.15,2013-03-15 06:00:00,
2013-03-15 02:05:00,29.4,20.1,30.09,SSE,165,0.0,0.0,68,0.00,,,0.00,Wunderground v.1.15,2013-03-15 06:05:00,
2013-03-15 02:15:00,30.1,19.7,30.09,SSE,165,0.0,0.0,65,0.00,,,0.00,Wunderground v.1.15,2013-03-15 06:15:00,
2013-03-15 02:25:00,30.1,19.7,30.08,SSE,165,0.0,0.0,65,0.00,,,0.00,Wunderground v.1.15,2013-03-15 06:25:00,
2013-03-15 02:30:00,30.0,20.0,30.08,SSE,165,0.0,0.0,66,0.00,,,0.00,Wunderground v.1.15,2013-03-15 06:30:00,
2013-03-15 02:40:00,30.0,20.4,30.09,SSE,165,0.0,0.0,67,0.00,,,0.00,Wunderground v.1.15,2013-03-15 06:40:00,
2013-03-15 02:45:00,29.8,20.2,30.09,SSE,159,0.0,0.0,67,0.00,,,0.00,Wunderground v.1.15,2013-03-15 06:45:00,
2013-03-15 02:55:00,29.8,20.2,30.09,SE,137,0.0,0.0,67,0.00,,,0.00,Wunderground v.1.15,2013-03-15 06:55:00,
2013-03-15 03:00:00,30.0,20.4,30.09,SE,138,0.0,0.0,67,0.00,,,0.00,Wunderground v.1.15,2013-03-15 07:00:00,
2013-03-15 03:10:00,29.5,19.9,30.08,SE,138,0.0,0.0,67,0.00,,,0.00,Wunderground v.1.15,2013-03-15 07:10:00,
2013-03-15 03:15:00,29.4,20.1,30.08,SE,138,0.0,0.0,68,0.00,,,0.00,Wunderground v.1.15,2013-03-15 07:15:00,
2013-03-15 03:25:00,29.1,20.2,30.08,SE,138,0.0,0.0,69,0.00,,,0.00,Wunderground v.1.15,2013-03-15 07:25:00,
2013-03-15 03:30:00,29.0,20.4,30.08,SE,138,0.0,0.0,70,0.00,,,0.00,Wunderground v.1.15,2013-03-15 07:30:00,
2013-03-15 03:40:00,29.1,20.2,30.07,ESE,118,0.0,0.0,69,0.00,,,0.00,Wunderground v.1.15,2013-03-15 07:40:00,
2013-03-15 03:45:00,29.4,20.1,30.07,ESE,118,0.0,0.0,68,0.00,,,0.00,Wunderground v.1.15,2013-03-15 07:45:00,
2013-03-15 03:55:00,30.0,19.7,30.06,SSE,164,0.0,0.0,65,0.00,,,0.00,Wunderground v.1.15,2013-03-15 07:55:00,
2013-03-15 04:00:00,30.1,19.7,30.06,SSE,164,0.0,0.0,65,0.00,,,0.00,Wunderground v.1.15,2013-03-15 08:00:00,
2013-03-15 04:10:00,30.3,19.6,30.06,SE,146,0.0,1.0,64,0.00,,,0.00,Wunderground v.1.15,2013-03-15 08:10:00,
2013-03-15 04:15:00,30.4,20.0,30.06,SE,146,0.0,1.0,65,0.00,,,0.00,Wunderground v.1.15,2013-03-15 08:15:00,
2013-03-15 04:25:00,30.6,20.6,30.05,SE,146,0.0,1.0,66,0.00,,,0.00,Wunderground v.1.15,2013-03-15 08:25:00,
2013-03-15 04:30:00,30.6,20.6,30.05,SE,146,0.0,0.0,66,0.00,,,0.00,Wunderground v.1.15,2013-03-15 08:30:00,
2013-03-15 04:40:00,30.7,20.7,30.05,SSE,148,0.0,0.0,66,0.00,,,0.00,Wunderground v.1.15,2013-03-15 08:40:00,
2013-03-15 04:45:00,30.7,20.7,30.05,SSE,148,0.0,0.0,66,0.00,,,0.00,Wunderground v.1.15,2013-03-15 08:45:00,
2013-03-15 04:55:00,30.6,20.9,30.05,SSE,148,0.0,0.0,67,0.00,,,0.00,Wunderground v.1.15,2013-03-15 08:55:00,
2013-03-15 05:00:00,30.6,20.9,30.05,SSE,148,0.0,0.0,67,0.00,,,0.00,Wunderground v.1.15,2013-03-15 09:00:00,
2013-03-15 05:10:00,30.9,21.2,30.03,SSE,148,0.0,0.0,67,0.00,,,0.00,Wunderground v.1.15,2013-03-15 09:10:00,
2013-03-15 05:15:00,30.9,21.2,30.03,SSE,148,0.0,0.0,67,0.00,,,0.00,Wunderground v.1.15,2013-03-15 09:15:00,
2013-03-15 05:25:00,31.2,22.2,30.02,North,360,0.0,0.0,69,0.00,,,0.00,Wunderground v.1.15,2013-03-15 09:25:00,
2013-03-15 05:30:00,31.3,22.6,30.02,North,360,0.0,0.0,70,0.00,,,0.00,Wunderground v.1.15,2013-03-15 09:30:00,
2013-03-15 05:40:00,31.5,23.5,30.03,NNW,339,0.0,0.0,72,0.00,,,0.00,Wunderground v.1.15,2013-03-15 09:40:00,
2013-03-15 05:45:00,31.5,23.2,30.03,SSE,155,0.0,0.0,71,0.00,,,0.00,Wunderground v.1.15,2013-03-15 09:45:00,
2013-03-15 05:55:00,31.2,22.5,30.03,South,178,0.0,0.0,70,0.00,,,0.00,Wunderground v.1.15,2013-03-15 09:55:00,
2013-03-15 06:00:00,31.0,22.0,30.03,West,275,0.0,0.0,69,0.00,,,0.00,Wunderground v.1.15,2013-03-15 10:00:00,
2013-03-15 06:10:00,30.6,22.0,30.02,SSE,156,0.0,0.0,70,0.00,,,0.00,Wunderground v.1.15,2013-03-15 10:10:00,
2013-03-15 06:15:00,30.4,21.8,30.02,SSE,155,0.0,1.0,70,0.00,,,0.00,Wunderground v.1.15,2013-03-15 10:15:00,
2013-03-15 06:25:00,30.3,22.4,30.01,SSE,155,0.0,0.0,72,0.00,,,0.00,Wunderground v.1.15,2013-03-15 10:25:00,
2013-03-15 06:30:00,30.1,22.5,30.01,SSE,163,0.0,0.0,73,0.00,,,0.00,Wunderground v.1.15,2013-03-15 10:30:00,
2013-03-15 06:40:00,30.0,22.7,30.01,ESE,108,0.0,0.0,74,0.00,,,0.00,Wunderground v.1.15,2013-03-15 10:40:00,
2013-03-15 06:45:00,30.0,22.7,30.01,ESE,108,0.0,0.0,74,0.00,,,0.00,Wunderground v.1.15,2013-03-15 10:45:00,
2013-03-15 06:55:00,29.7,22.4,30.01,East,95,0.0,1.0,74,0.00,,,0.00,Wunderground v.1.15,2013-03-15 10:55:00,
2013-03-15 07:00:00,29.7,22.4,30.01,NNE,15,0.0,0.0,74,0.00,,,0.00,Wunderground v.1.15,2013-03-15 11:00:00,
2013-03-15 07:10:00,29.4,22.1,30.00,SE,134,0.0,0.0,74,0.00,,,0.00,Wunderground v.1.15,2013-03-15 11:10:00,
2013-03-15 07:15:00,29.4,22.1,30.00,SE,141,0.0,0.0,74,0.00,,,0.00,Wunderground v.1.15,2013-03-15 11:15:00,
2013-03-15 07:25:00,29.3,22.0,30.00,SSW,197,0.0,1.0,74,0.00,,,0.00,Wunderground v.1.15,2013-03-15 11:25:00,
2013-03-15 07:30:00,29.3,22.0,30.00,South,185,0.0,0.0,74,0.00,,,0.00,Wunderground v.1.15,2013-03-15 11:30:00,
2013-03-15 07:40:00,29.3,22.0,30.00,SSE,159,0.0,0.0,74,0.00,,,0.00,Wunderground v.1.15,2013-03-15 11:40:00,
2013-03-15 07:45:00,29.4,22.1,30.00,SW,226,0.0,2.0,74,0.00,,,0.00,Wunderground v.1.15,2013-03-15 11:45:00,
2013-03-15 07:55:00,29.4,21.8,29.99,SE,139,0.0,1.0,73,0.00,,,0.00,Wunderground v.1.15,2013-03-15 11:55:00,
2013-03-15 08:00:00,29.4,21.8,29.99,SSE,156,0.0,0.0,73,0.00,,,0.00,Wunderground v.1.15,2013-03-15 12:00:00,
2013-03-15 08:10:00,29.5,22.2,29.99,SSW,194,0.0,1.0,74,0.00,,,0.00,Wunderground v.1.15,2013-03-15 12:10:00,
2013-03-15 08:15:00,29.7,22.7,29.99,SSE,151,0.0,1.0,75,0.00,,,0.00,Wunderground v.1.15,2013-03-15 12:15:00,
2013-03-15 08:25:00,29.8,22.8,29.99,SSE,162,1.0,1.0,75,0.00,,,0.00,Wunderground v.1.15,2013-03-15 12:25:00,
2013-03-15 08:30:00,30.0,23.0,29.99,SE,128,1.0,2.0,75,0.00,,,0.00,Wunderground v.1.15,2013-03-15 12:30:00,
2013-03-15 08:40:00,30.3,23.6,29.98,SSW,204,2.0,2.0,76,0.00,,,0.00,Wunderground v.1.15,2013-03-15 12:40:00,
2013-03-15 08:45:00,30.6,23.9,29.98,South,183,1.0,2.0,76,0.00,,,0.00,Wunderground v.1.15,2013-03-15 12:45:00,
2013-03-15 08:55:00,30.9,24.5,29.98,SW,235,1.0,3.0,77,0.00,,,0.00,Wunderground v.1.15,2013-03-15 12:55:00,
2013-03-15 09:00:00,31.2,24.8,29.98,South,171,1.0,1.0,77,0.00,,,0.00,Wunderground v.1.15,2013-03-15 13:00:00,
2013-03-15 09:10:00,31.6,25.2,29.98,South,175,2.0,2.0,77,0.00,,,0.00,Wunderground v.1.15,2013-03-15 13:10:00,
2013-03-15 09:15:00,31.9,25.5,29.98,South,182,2.0,2.0,77,0.00,,,0.00,Wunderground v.1.15,2013-03-15 13:15:00,
2013-03-15 09:25:00,32.2,26.1,29.98,South,171,1.0,4.0,78,0.00,,,0.00,Wunderground v.1.15,2013-03-15 13:25:00,
2013-03-15 09:30:00,32.5,26.4,29.98,South,191,2.0,4.0,78,0.00,,,0.00,Wunderground v.1.15,2013-03-15 13:30:00,
2013-03-15 09:40:00,32.9,26.8,29.97,SSW,205,2.0,2.0,78,0.00,,,0.00,Wunderground v.1.15,2013-03-15 13:40:00,
2013-03-15 09:45:00,33.2,27.4,29.97,SSE,149,2.0,2.0,79,0.00,,,0.00,Wunderground v.1.15,2013-03-15 13:45:00,
2013-03-15 09:55:00,33.5,27.4,29.98,SSE,155,2.0,2.0,78,0.00,,,0.00,Wunderground v.1.15,2013-03-15 13:55:00,
2013-03-15 10:00:00,33.8,27.7,29.98,SSW,208,3.0,3.0,78,0.00,,,0.00,Wunderground v.1.15,2013-03-15 14:00:00,
2013-03-15 10:10:00,34.4,28.2,29.98,South,178,2.0,2.0,78,0.00,,,0.00,Wunderground v.1.15,2013-03-15 14:10:00,
2013-03-15 10:15:00,34.7,28.2,29.98,South,186,2.0,6.0,77,0.00,,,0.00,Wunderground v.1.15,2013-03-15 14:15:00,
2013-03-15 10:25:00,35.3,28.8,29.97,WSW,244,1.0,2.0,77,0.00,,,0.00,Wunderground v.1.15,2013-03-15 14:25:00,
2013-03-15 10:30:00,35.8,29.0,29.97,East,92,1.0,1.0,76,0.00,,,0.00,Wunderground v.1.15,2013-03-15 14:30:00,
2013-03-15 10:40:00,36.5,29.0,29.96,WSW,238,3.0,3.0,74,0.00,,,0.00,Wunderground v.1.15,2013-03-15 14:40:00,
2013-03-15 10:45:00,36.8,29.0,29.96,SW,222,2.0,3.0,73,0.00,,,0.00,Wunderground v.1.15,2013-03-15 14:45:00,
2013-03-15 10:55:00,37.2,29.3,29.96,West,274,3.0,3.0,73,0.00,,,0.00,Wunderground v.1.15,2013-03-15 14:55:00,
2013-03-15 11:00:00,37.5,29.3,29.96,South,174,2.0,2.0,72,0.00,,,0.00,Wunderground v.1.15,2013-03-15 15:00:00,
2013-03-15 11:10:00,38.2,29.3,29.96,West,260,1.0,4.0,70,0.00,,,0.00,Wunderground v.1.15,2013-03-15 15:10:00,
2013-03-15 11:15:00,38.6,29.3,29.96,SW,222,1.0,4.0,69,0.00,,,0.00,Wunderground v.1.15,2013-03-15 15:15:00,
2013-03-15 11:25:00,39.3,30.0,29.94,WSW,251,1.0,3.0,69,0.00,,,0.00,Wunderground v.1.15,2013-03-15 15:25:00,
2013-03-15 11:30:00,39.9,30.5,29.94,South,175,1.0,1.0,69,0.00,,,0.00,Wunderground v.1.15,2013-03-15 15:30:00,
2013-03-15 11:40:00,40.5,30.0,29.94,West,267,2.0,2.0,66,0.00,,,0.00,Wunderground v.1.15,2013-03-15 15:40:00,
2013-03-15 11:45:00,40.8,29.6,29.94,South,175,2.0,2.0,64,0.00,,,0.00,Wunderground v.1.15,2013-03-15 15:45:00,
2013-03-15 11:55:00,41.2,29.9,29.93,West,267,1.0,2.0,64,0.00,,,0.00,Wunderground v.1.15,2013-03-15 15:55:00,
2013-03-15 12:00:00,41.2,30.3,29.93,SW,227,2.0,2.0,65,0.00,,,0.00,Wunderground v.1.15,2013-03-15 16:00:00,
2013-03-15 12:10:00,41.2,30.3,29.92,South,190,2.0,2.0,65,0.00,,,0.00,Wunderground v.1.15,2013-03-15 16:10:00,
2013-03-15 12:15:00,41.5,31.0,29.92,SE,145,2.0,3.0,66,0.00,,,0.00,Wunderground v.1.15,2013-03-15 16:15:00,
2013-03-15 12:25:00,42.5,31.2,29.91,SSW,207,2.0,2.0,64,0.00,,,0.00,Wunderground v.1.15,2013-03-15 16:25:00,
2013-03-15 12:30:00,42.8,31.5,29.91,WNW,282,2.0,2.0,64,0.00,,,0.00,Wunderground v.1.15,2013-03-15 16:30:00,
2013-03-15 12:40:00,42.8,31.5,29.91,SSW,203,2.0,5.0,64,0.00,,,0.00,Wunderground v.1.15,2013-03-15 16:40:00,
2013-03-15 12:45:00,42.9,31.6,29.91,West,266,2.0,5.0,64,0.00,,,0.00,Wunderground v.1.15,2013-03-15 16:45:00,
2013-03-15 12:55:00,43.5,32.1,29.90,South,175,1.0,2.0,64,0.00,,,0.00,Wunderground v.1.15,2013-03-15 16:55:00,
2013-03-15 13:00:00,43.9,32.5,29.90,SW,229,1.0,1.0,64,0.00,,,0.00,Wunderground v.1.15,2013-03-15 17:00:00,
2013-03-15 13:10:00,44.3,32.1,29.90,SSW,195,2.0,5.0,62,0.00,,,0.00,Wunderground v.1.15,2013-03-15 17:10:00,
2013-03-15 13:15:00,43.8,31.6,29.90,WSW,245,2.0,5.0,62,0.00,,,0.00,Wunderground v.1.15,2013-03-15 17:15:00,
2013-03-15 13:25:00,43.3,31.1,29.89,SW,223,2.0,2.0,62,0.00,,,0.00,Wunderground v.1.15,2013-03-15 17:25:00,
2013-03-15 13:30:00,43.2,31.4,29.89,South,173,2.0,2.0,63,0.00,,,0.00,Wunderground v.1.15,2013-03-15 17:30:00,
2013-03-15 13:40:00,43.5,31.3,29.89,SW,220,1.0,1.0,62,0.00,,,0.00,Wunderground v.1.15,2013-03-15 17:40:00,
2013-03-15 13:45:00,43.8,31.2,29.89,South,186,2.0,3.0,61,0.00,,,0.00,Wunderground v.1.15,2013-03-15 17:45:00,
2013-03-15 13:55:00,44.2,32.8,29.89,West,279,2.0,2.0,64,0.00,,,0.00,Wunderground v.1.15,2013-03-15 17:55:00,
2013-03-15 14:00:00,44.8,31.8,29.89,SE,136,1.0,1.0,60,0.00,,,0.00,Wunderground v.1.15,2013-03-15 18:00:00,
2013-03-15 14:05:00,45.1,31.6,29.89,SW,232,1.0,2.0,59,0.00,,,0.00,Wunderground v.1.15,2013-03-15 18:05:00,
2013-03-15 14:15:00,45.2,31.7,29.89,WSW,241,2.0,3.0,59,0.00,,,0.00,Wunderground v.1.15,2013-03-15 18:15:00,
2013-03-15 14:25:00,45.2,31.3,29.88,SSW,208,2.0,2.0,58,0.00,,,0.00,Wunderground v.1.15,2013-03-15 18:25:00,
2013-03-15 14:30:00,45.4,32.3,29.88,WSW,258,2.0,2.0,60,0.00,,,0.00,Wunderground v.1.15,2013-03-15 18:30:00,
2013-03-15 14:40:00,45.7,31.8,29.87,SSW,193,2.0,2.0,58,0.00,,,0.00,Wunderground v.1.15,2013-03-15 18:40:00,
2013-03-15 14:45:00,45.8,32.3,29.87,East,95,2.0,2.0,59,0.00,,,0.00,Wunderground v.1.15,2013-03-15 18:45:00,
2013-03-15 14:55:00,46.2,33.1,29.86,South,185,2.0,4.0,60,0.00,,,0.00,Wunderground v.1.15,2013-03-15 18:55:00,
2013-03-15 15:00:00,46.4,32.0,29.86,South,170,2.0,3.0,57,0.00,,,0.00,Wunderground v.1.15,2013-03-15 19:00:00,
2013-03-15 15:10:00,46.4,31.5,29.85,West,275,2.0,2.0,56,0.00,,,0.00,Wunderground v.1.15,2013-03-15 19:10:00,
2013-03-15 15:15:00,46.2,31.8,29.85,SSW,209,2.0,2.0,57,0.00,,,0.00,Wunderground v.1.15,2013-03-15 19:15:00,
2013-03-15 15:25:00,46.5,31.6,29.85,South,188,2.0,2.0,56,0.00,,,0.00,Wunderground v.1.15,2013-03-15 19:25:00,
2013-03-15 15:30:00,46.8,32.8,29.85,SSE,153,1.0,3.0,58,0.00,,,0.00,Wunderground v.1.15,2013-03-15 19:30:00,
2013-03-15 15:40:00,47.3,32.4,29.84,SSE,157,2.0,2.0,56,0.00,,,0.00,Wunderground v.1.15,2013-03-15 19:40:00,
2013-03-15 15:45:00,47.1,32.2,29.84,WSW,249,2.0,2.0,56,0.00,,,0.00,Wunderground v.1.15,2013-03-15 19:45:00,
2013-03-15 15:55:00,47.4,32.5,29.83,WSW,244,2.0,3.0,56,0.00,,,0.00,Wunderground v.1.15,2013-03-15 19:55:00,
2013-03-15 16:00:00,47.4,32.5,29.83,SW,232,2.0,3.0,56,0.00,,,0.00,Wunderground v.1.15,2013-03-15 20:00:00,
2013-03-15 16:10:00,47.7,32.8,29.83,WSW,241,2.0,2.0,56,0.00,,,0.00,Wunderground v.1.15,2013-03-15 20:10:00,
2013-03-15 16:15:00,48.2,32.8,29.83,SW,227,2.0,2.0,55,0.00,,,0.00,Wunderground v.1.15,2013-03-15 20:15:00,
2013-03-15 16:25:00,48.2,32.8,29.83,South,176,2.0,4.0,55,0.00,,,0.00,Wunderground v.1.15,2013-03-15 20:25:00,
2013-03-15 16:30:00,48.3,33.8,29.83,SSW,203,2.0,2.0,57,0.00,,,0.00,Wunderground v.1.15,2013-03-15 20:30:00,
2013-03-15 16:40:00,48.8,33.3,29.83,WSW,257,2.0,2.0,55,0.00,,,0.00,Wunderground v.1.15,2013-03-15 20:40:00,
2013-03-15 16:45:00,49.2,34.2,29.83,NW,321,1.0,2.0,56,0.00,,,0.00,Wunderground v.1.15,2013-03-15 20:45:00,
2013-03-15 16:55:00,48.8,33.3,29.83,West,267,2.0,3.0,55,0.00,,,0.00,Wunderground v.1.15,2013-03-15 20:55:00,
2013-03-15 17:00:00,48.8,33.8,29.83,SW,228,2.0,2.0,56,0.00,,,0.00,Wunderground v.1.15,2013-03-15 21:00:00,
2013-03-15 17:10:00,49.2,33.3,29.84,WSW,246,1.0,1.0,54,0.00,,,0.00,Wunderground v.1.15,2013-03-15 21:10:00,
2013-03-15 17:15:00,49.5,33.5,29.84,WSW,254,2.0,2.0,54,0.00,,,0.00,Wunderground v.1.15,2013-03-15 21:15:00,
2013-03-15 17:25:00,49.2,33.7,29.83,NE,44,1.0,1.0,55,0.00,,,0.00,Wunderground v.1.15,2013-03-15 21:25:00,
2013-03-15 17:30:00,49.1,33.6,29.83,West,264,1.0,2.0,55,0.00,,,0.00,Wunderground v.1.15,2013-03-15 21:30:00,
2013-03-15 17:40:00,48.6,34.0,29.83,WSW,240,2.0,2.0,57,0.00,,,0.00,Wunderground v.1.15,2013-03-15 21:40:00,
2013-03-15 17:45:00,48.3,33.8,29.83,WSW,245,2.0,2.0,57,0.00,,,0.00,Wunderground v.1.15,2013-03-15 21:45:00,
2013-03-15 17:55:00,47.9,33.8,29.83,South,186,2.0,2.0,58,0.00,,,0.00,Wunderground v.1.15,2013-03-15 21:55:00,
2013-03-15 18:00:00,47.7,33.6,29.83,West,267,1.0,1.0,58,0.00,,,0.00,Wunderground v.1.15,2013-03-15 22:00:00,
2013-03-15 18:10:00,47.7,34.1,29.83,West,265,0.0,1.0,59,0.00,,,0.00,Wunderground v.1.15,2013-03-15 22:10:00,
2013-03-15 18:15:00,47.6,34.0,29.83,WSW,248,1.0,1.0,59,0.00,,,0.00,Wunderground v.1.15,2013-03-15 22:15:00,
2013-03-15 18:25:00,47.4,33.8,29.83,SW,223,0.0,0.0,59,0.00,,,0.00,Wunderground v.1.15,2013-03-15 22:25:00,
2013-03-15 18:30:00,47.3,34.1,29.83,SSW,195,1.0,1.0,60,0.00,,,0.00,Wunderground v.1.15,2013-03-15 22:30:00,
2013-03-15 18:40:00,47.0,34.2,29.82,WSW,242,0.0,1.0,61,0.00,,,0.00,Wunderground v.1.15,2013-03-15 22:40:00,
2013-03-15 18:45:00,47.0,34.2,29.82,WSW,242,0.0,1.0,61,0.00,,,0.00,Wunderground v.1.15,2013-03-15 22:45:00,
2013-03-15 18:55:00,46.7,34.4,29.83,East,86,1.0,3.0,62,0.00,,,0.00,Wunderground v.1.15,2013-03-15 22:55:00,
2013-03-15 19:00:00,46.7,34.4,29.83,ENE,69,1.0,2.0,62,0.00,,,0.00,Wunderground v.1.15,2013-03-15 23:00:00,
2013-03-15 19:05:00,46.5,34.2,29.83,WSW,255,0.0,2.0,62,0.00,,,0.00,Wunderground v.1.15,2013-03-15 23:05:00,
2013-03-15 19:15:00,46.4,34.5,29.83,South,180,0.0,0.0,63,0.00,,,0.00,Wunderground v.1.15,2013-03-15 23:15:00,
2013-03-15 19:25:00,46.1,34.2,29.83,South,180,0.0,0.0,63,0.00,,,0.00,Wunderground v.1.15,2013-03-15 23:25:00,
2013-03-15 19:30:00,46.0,34.5,29.83,South,180,0.0,0.0,64,0.00,,,0.00,Wunderground v.1.15,2013-03-15 23:30:00,
2013-03-15 19:40:00,45.5,34.0,29.84,South,180,0.0,0.0,64,0.00,,,0.00,Wunderground v.1.15,2013-03-15 23:40:00,
2013-03-15 19:45:00,45.5,34.0,29.84,ENE,72,0.0,0.0,64,0.00,,,0.00,Wunderground v.1.15,2013-03-15 23:45:00,
2013-03-15 19:55:00,45.4,33.9,29.84,ENE,71,0.0,0.0,64,0.00,,,0.00,Wunderground v.1.15,2013-03-15 23:55:00,
2013-03-15 20:00:00,45.2,33.7,29.84,ENE,71,0.0,0.0,64,0.00,,,0.00,Wunderground v.1.15,2013-03-16 00:00:00,
2013-03-15 20:10:00,45.1,33.6,29.84,ENE,63,0.0,0.0,64,0.00,,,0.00,Wunderground v.1.15,2013-03-16 00:10:00,
2013-03-15 20:15:00,44.8,33.7,29.84,ENE,63,0.0,0.0,65,0.00,,,0.00,Wunderground v.1.15,2013-03-16 00:15:00,
2013-03-15 20:25:00,44.6,33.9,29.84,ENE,63,0.0,0.0,66,0.00,,,0.00,Wunderground v.1.15,2013-03-16 00:25:00,
2013-03-15 20:30:00,44.5,33.8,29.84,ENE,63,0.0,0.0,66,0.00,,,0.00,Wunderground v.1.15,2013-03-16 00:30:00,
2013-03-15 20:40:00,44.3,34.4,29.84,ENE,63,0.0,0.0,68,0.00,,,0.00,Wunderground v.1.15,2013-03-16 00:40:00,
2013-03-15 20:45:00,44.2,34.3,29.84,ENE,63,0.0,0.0,68,0.00,,,0.00,Wunderground v.1.15,2013-03-16 00:45:00,
2013-03-15 20:55:00,44.1,34.2,29.84,ENE,63,0.0,0.0,68,0.00,,,0.00,Wunderground v.1.15,2013-03-16 00:55:00,
2013-03-15 21:00:00,43.9,34.4,29.84,ENE,63,0.0,0.0,69,0.00,,,0.00,Wunderground v.1.15,2013-03-16 01:00:00,
2013-03-15 21:10:00,43.6,34.5,29.83,ENE,63,0.0,0.0,70,0.00,,,0.00,Wunderground v.1.15,2013-03-16 01:10:00,
2013-03-15 21:15:00,43.5,34.7,29.83,ENE,63,0.0,0.0,71,0.00,,,0.00,Wunderground v.1.15,2013-03-16 01:15:00,
2013-03-15 21:25:00,43.3,35.2,29.83,ENE,63,0.0,0.0,73,0.00,,,0.00,Wunderground v.1.15,2013-03-16 01:25:00,
2013-03-15 21:30:00,43.2,36.1,29.83,ENE,63,0.0,0.0,76,0.00,,,0.00,Wunderground v.1.15,2013-03-16 01:30:00,
2013-03-15 21:40:00,43.1,36.7,29.83,ENE,63,0.0,0.0,78,0.00,,,0.00,Wunderground v.1.15,2013-03-16 01:40:00,
2013-03-15 21:45:00,42.9,37.2,29.83,ENE,63,0.0,0.0,80,0.00,,,0.00,Wunderground v.1.15,2013-03-16 01:45:00,
2013-03-15 21:55:00,42.5,37.4,29.82,ENE,63,0.0,0.0,82,0.00,,,0.01,Wunderground v.1.15,2013-03-16 01:55:00,
2013-03-15 22:00:00,42.3,37.8,29.82,ENE,63,0.0,0.0,84,0.00,,,0.01,Wunderground v.1.15,2013-03-16 02:00:00,
2013-03-15 22:10:00,42.1,37.3,29.82,ENE,63,0.0,0.0,83,0.00,,,0.01,Wunderground v.1.15,2013-03-16 02:10:00,
2013-03-15 22:15:00,41.9,37.7,29.82,ENE,63,0.0,0.0,85,0.00,,,0.01,Wunderground v.1.15,2013-03-16 02:15:00,
2013-03-15 22:25:00,41.6,38.0,29.82,ENE,63,0.0,0.0,87,0.00,,,0.01,Wunderground v.1.15,2013-03-16 02:25:00,
2013-03-15 22:30:00,41.5,38.2,29.82,ENE,63,0.0,0.0,88,0.00,,,0.01,Wunderground v.1.15,2013-03-16 02:30:00,
2013-03-15 22:40:00,41.3,38.0,29.81,ENE,63,0.0,0.0,88,0.00,,,0.01,Wunderground v.1.15,2013-03-16 02:40:00,
2013-03-15 22:45:00,41.3,38.0,29.81,ENE,63,0.0,0.0,88,0.22,,,0.03,Wunderground v.1.15,2013-03-16 02:45:00,
2013-03-15 22:55:00,41.2,38.2,29.82,ENE,63,0.0,0.0,89,0.10,,,0.04,Wunderground v.1.15,2013-03-16 02:55:00,
2013-03-15 23:00:00,41.2,38.5,29.82,ENE,63,0.0,0.0,90,0.06,,,0.04,Wunderground v.1.15,2013-03-16 03:00:00,
2013-03-15 23:10:00,41.1,38.7,29.83,ENE,63,0.0,0.0,91,0.06,,,0.05,Wunderground v.1.15,2013-03-16 03:10:00,
2013-03-15 23:15:00,41.1,38.7,29.83,ESE,113,0.0,0.0,91,0.04,,,0.06,Wunderground v.1.15,2013-03-16 03:15:00,
2013-03-15 23:25:00,41.1,39.0,29.82,ESE,113,0.0,0.0,92,0.06,,,0.07,Wunderground v.1.15,2013-03-16 03:25:00,
2013-03-15 23:30:00,41.1,39.0,29.82,ESE,113,0.0,0.0,92,0.06,,,0.07,Wunderground v.1.15,2013-03-16 03:30:00,
2013-03-15 23:40:00,40.9,38.8,29.82,SW,217,0.0,1.0,92,0.06,,,0.08,Wunderground v.1.15,2013-03-16 03:40:00,
2013-03-15 23:45:00,41.1,39.0,29.82,South,177,0.0,1.0,92,0.05,,,0.08,Wunderground v.1.15,2013-03-16 03:45:00,
2013-03-15 23:55:00,41.1,39.0,29.82,South,179,0.0,1.0,92,0.05,,,0.09,Wunderground v.1.15,2013-03-16 03:55:00,